Flight Track Log - Related Links

Times and Time Zones

All times are in EDT time to prevent confusion due to time zone crossing. See the SKW6345 flight status page for this flight to view local times or setup timezone preferences in your user account.

Time Position Orientation Groundspeed Altitude Reporting Facility
EDT Latitude Longitude Course Direction KTS MPH feet Rate Location/Type
Fri 09:28:07 AM 44.5417 -108.9886 158° South 206 237 6,200  Level Salt Lake Center
Fri 09:29:00 AM 44.5541 -108.9969 28° Northeast  Level FlightAware Approximate
Fri 09:29:08 AM 44.5931 -108.9692 15° North 197 227 8,100  Level Salt Lake Center
Fri 09:30:00 AM 44.5698 -108.9335 159° South  Level FlightAware Approximate
Fri 09:30:09 AM 44.6303 -108.9119 48° Northeast 242 278 10,100  Level Salt Lake Center
Fri 09:31:00 AM 44.4579 -108.8724 159° South  Level FlightAware Approximate
Fri 09:31:10 AM 44.5514 -108.8789 163° South 281 323 12,200  Level Salt Lake Center
Fri 09:32:00 AM 44.3482 -108.8043 154° Southeast  Level FlightAware Approximate
Fri 09:32:11 AM 44.4664 -108.8753 178° South 303 349 14,000  Level Salt Lake Center
Fri 09:33:00 AM 44.2392 -108.7343 158° South  Level FlightAware Approximate
Fri 09:33:12 AM 44.3794 -108.8272 158° South 343 395 16,200  Level Salt Lake Center
Fri 09:34:13 AM 44.2764 -108.7667 157° South 356 410 17,700 1,033 Climbing Salt Lake Center
Fri 09:35:14 AM 44.1808 -108.7122 158° South 377 434 18,300 934 Climbing Salt Lake Center
Fri 09:36:15 AM 44.0642 -108.6461 158° South 398 458 19,600 1,279 Climbing Salt Lake Center
Fri 09:37:16 AM 43.9619 -108.5864 157° South 407 468 20,900 1,230 Climbing Salt Lake Center
Fri 09:38:17 AM 43.8581 -108.5286 158° South 414 476 22,100 1,180 Climbing Salt Lake Center
Fri 09:39:18 AM 43.7378 -108.4589 157° South 417 480 23,300 976 Climbing Salt Lake Center
Fri 09:40:20 AM 43.6317 -108.3992 158° South 423 487 24,100 732 Climbing Salt Lake Center
Fri 09:41:21 AM 43.5233 -108.3383 158° South 430 495 24,800 787 Climbing Salt Lake Center
Fri 09:42:22 AM 43.4033 -108.2406 149° Southeast 444 511 25,700 787 Climbing Salt Lake Center
Fri 09:43:23 AM 43.3075 -108.1378 142° Southeast 454 522 26,400 738 Climbing Salt Lake Center
Fri 09:44:24 AM 43.1942 -108.0139 141° Southeast 462 532 27,200 689 Climbing Salt Lake Center
Fri 09:45:25 AM 43.0961 -107.9111 143° Southeast 464 534 27,800 689 Climbing Salt Lake Center
Fri 09:46:26 AM 42.9978 -107.8081 143° Southeast 465 535 28,600 836 Climbing Salt Lake Center
Fri 09:47:27 AM 42.8831 -107.6889 143° Southeast 461 531 29,500 829 Climbing Salt Lake Center
Fri 09:48:29 AM 42.7850 -107.5839 142° Southeast 466 536 30,300 732 Climbing Salt Lake Center
Fri 09:49:30 AM 42.6872 -107.4850 143° Southeast 460 529 31,000 344 Climbing Salt Lake Center
Fri 09:50:31 AM 42.5717 -107.3664 143° Southeast 465 535 31,000  Level Salt Lake Center
Fri 09:51:03 AM 42.5206 -107.3133 143° Southeast 473 544 31,000  Level Denver Center
Fri 09:52:04 AM 42.4122 -107.2206 148° Southeast 479 551 31,000  Level Denver Center
Fri 09:53:06 AM 42.2758 -107.1317 154° Southeast 487 560 31,000  Level Denver Center
Fri 09:54:07 AM 42.1567 -107.0558 155° Southeast 491 565 31,000  Level Denver Center
Fri 09:55:08 AM 42.0150 -106.9669 155° Southeast 499 574 31,000  Level Denver Center
Fri 09:56:09 AM 41.8969 -106.8917 155° Southeast 494 568 31,000  Level Denver Center
Fri 09:57:11 AM 41.7811 -106.8183 155° Southeast 485 558 31,000  Level Denver Center
Fri 09:58:12 AM 41.6439 -106.7325 155° Southeast 485 558 31,000  Level Denver Center
Fri 09:59:13 AM 41.5286 -106.6597 155° Southeast 481 554 31,000  Level Denver Center
Fri 10:00:15 AM 41.4133 -106.5878 155° Southeast 478 550 31,000  Level Denver Center
Fri 10:01:16 AM 41.2781 -106.5033 155° Southeast 479 551 31,000  Level Denver Center
Fri 10:02:17 AM 41.1625 -106.4317 155° Southeast 478 550 31,000  Level Denver Center
Fri 10:03:19 AM 41.0272 -106.3483 155° Southeast 480 552 31,000  Level Denver Center
Fri 10:04:20 AM 40.9119 -106.2778 155° Southeast 477 549 31,000  Level Denver Center
Fri 10:05:21 AM 40.8167 -106.1472 134° Southeast 468 539 31,000 -1,024 Level Denver Center
Fri 10:06:23 AM 40.7256 -106.0028 130° Southeast 477 549 28,900 -2,000 Descending Denver Center
Fri 10:07:24 AM 40.6392 -105.8703 131° Southeast 474 545 26,900 -2,049 Descending Denver Center
Fri 10:08:26 AM 40.5522 -105.7403 131° Southeast 470 541 24,700 -1,859 Descending Denver Center
Fri 10:10:28 AM 40.3911 -105.4878 130° Southeast 438 504 21,200 -2,152 Descending Denver Center
Fri 10:11:30 AM 40.3475 -105.3694 116° Southeast 361 415 18,100 -2,371 Descending Denver Center
Fri 10:12:32 AM 40.3292 -105.2375 100° East 343 395 16,300 -1,610 Descending Denver Center
Fri 10:13:33 AM 40.3142 -105.1222 100° East 327 376 14,800 -1,561 Descending Denver Center
Fri 10:14:35 AM 40.2983 -105.0147 101° East 303 349 13,100 -1,463 Descending Denver Center
Fri 10:15:36 AM 40.2497 -104.9153 123° Southeast 311 358 11,800 -1,366 Descending Denver Center
Fri 10:16:38 AM 40.1922 -104.8367 134° Southeast 300 345 10,300 -1,561 Descending Denver Center
Fri 10:17:39 AM 40.1197 -104.7894 154° Southeast 292 336 8,600 -1,415 Descending Denver Center
Fri 10:18:41 AM 40.0497 -104.7417 152° Southeast 286 329 7,400 -1,161 Descending Denver Center

Login

Don't have an account? Register now (free) for customized features, flight alerts, and more!